sensor_id;sensor_type;location;lat;lon;timestamp;P1;durP1;ratioP1;P2;durP2;ratioP2
12122;SDS011;6125;59.628;17.852;2023-04-24T00:01:07;0.80;;;0.80;;
12122;SDS011;6125;59.628;17.852;2023-04-24T00:03:34;1.20;;;1.10;;
12122;SDS011;6125;59.628;17.852;2023-04-24T00:06:02;1.10;;;1.00;;
12122;SDS011;6125;59.628;17.852;2023-04-24T00:08:30;0.70;;;0.70;;
12122;SDS011;6125;59.628;17.852;2023-04-24T00:10:57;0.60;;;0.60;;
12122;SDS011;6125;59.628;17.852;2023-04-24T00:13:25;2.00;;;1.20;;
12122;SDS011;6125;59.628;17.852;2023-04-24T00:15:54;0.77;;;0.77;;
12122;SDS011;6125;59.628;17.852;2023-04-24T00:18:22;0.90;;;0.90;;
12122;SDS011;6125;59.628;17.852;2023-04-24T00:20:49;1.03;;;0.93;;
12122;SDS011;6125;59.628;17.852;2023-04-24T00:23:16;0.80;;;0.80;;
12122;SDS011;6125;59.628;17.852;2023-04-24T00:25:43;0.77;;;0.77;;
12122;SDS011;6125;59.628;17.852;2023-04-24T00:28:10;0.80;;;0.80;;
12122;SDS011;6125;59.628;17.852;2023-04-24T00:30:37;1.43;;;1.00;;
12122;SDS011;6125;59.628;17.852;2023-04-24T00:33:05;3.37;;;0.90;;
12122;SDS011;6125;59.628;17.852;2023-04-24T00:35:32;0.83;;;0.83;;
12122;SDS011;6125;59.628;17.852;2023-04-24T00:37:59;1.13;;;1.00;;
12122;SDS011;6125;59.628;17.852;2023-04-24T00:40:27;1.00;;;1.00;;
12122;SDS011;6125;59.628;17.852;2023-04-24T00:42:54;1.17;;;1.00;;
12122;SDS011;6125;59.628;17.852;2023-04-24T00:45:21;1.90;;;0.93;;
12122;SDS011;6125;59.628;17.852;2023-04-24T00:47:48;1.33;;;1.00;;
12122;SDS011;6125;59.628;17.852;2023-04-24T00:50:20;2.33;;;0.90;;
12122;SDS011;6125;59.628;17.852;2023-04-24T00:52:47;1.43;;;0.90;;
12122;SDS011;6125;59.628;17.852;2023-04-24T00:55:14;2.03;;;0.80;;
12122;SDS011;6125;59.628;17.852;2023-04-24T00:57:41;0.60;;;0.60;;
12122;SDS011;6125;59.628;17.852;2023-04-24T01:00:10;1.27;;;0.83;;
12122;SDS011;6125;59.628;17.852;2023-04-24T01:02:38;0.70;;;0.70;;
12122;SDS011;6125;59.628;17.852;2023-04-24T01:05:09;1.73;;;0.90;;
12122;SDS011;6125;59.628;17.852;2023-04-24T01:07:38;2.90;;;1.00;;
12122;SDS011;6125;59.628;17.852;2023-04-24T01:10:09;1.17;;;1.07;;
12122;SDS011;6125;59.628;17.852;2023-04-24T01:12:36;1.83;;;1.00;;
12122;SDS011;6125;59.628;17.852;2023-04-24T01:15:04;4.27;;;1.37;;
12122;SDS011;6125;59.628;17.852;2023-04-24T01:17:32;1.83;;;1.10;;
12122;SDS011;6125;59.628;17.852;2023-04-24T01:19:59;1.30;;;1.10;;
12122;SDS011;6125;59.628;17.852;2023-04-24T01:22:32;1.63;;;1.00;;
12122;SDS011;6125;59.628;17.852;2023-04-24T01:25:00;2.07;;;1.30;;
12122;SDS011;6125;59.628;17.852;2023-04-24T01:27:28;2.33;;;1.30;;
12122;SDS011;6125;59.628;17.852;2023-04-24T01:29:55;1.07;;;0.97;;
12122;SDS011;6125;59.628;17.852;2023-04-24T01:32:22;1.57;;;1.00;;
12122;SDS011;6125;59.628;17.852;2023-04-24T01:34:50;2.00;;;1.10;;
12122;SDS011;6125;59.628;17.852;2023-04-24T01:37:18;3.07;;;1.20;;
12122;SDS011;6125;59.628;17.852;2023-04-24T01:39:46;2.10;;;1.10;;
12122;SDS011;6125;59.628;17.852;2023-04-24T01:42:13;1.07;;;0.80;;
12122;SDS011;6125;59.628;17.852;2023-04-24T01:44:41;2.40;;;1.00;;
12122;SDS011;6125;59.628;17.852;2023-04-24T01:47:08;2.40;;;1.00;;
12122;SDS011;6125;59.628;17.852;2023-04-24T01:49:35;1.10;;;0.90;;
12122;SDS011;6125;59.628;17.852;2023-04-24T01:52:04;1.57;;;0.90;;
12122;SDS011;6125;59.628;17.852;2023-04-24T01:54:31;1.30;;;0.90;;
12122;SDS011;6125;59.628;17.852;2023-04-24T01:57:00;2.83;;;1.20;;
12122;SDS011;6125;59.628;17.852;2023-04-24T01:59:27;1.10;;;1.00;;
12122;SDS011;6125;59.628;17.852;2023-04-24T02:01:55;1.10;;;0.90;;
12122;SDS011;6125;59.628;17.852;2023-04-24T02:04:22;1.97;;;1.23;;
12122;SDS011;6125;59.628;17.852;2023-04-24T02:06:49;1.60;;;1.07;;
12122;SDS011;6125;59.628;17.852;2023-04-24T02:09:17;1.23;;;1.13;;
12122;SDS011;6125;59.628;17.852;2023-04-24T02:11:44;3.03;;;1.10;;
12122;SDS011;6125;59.628;17.852;2023-04-24T02:14:12;3.33;;;1.30;;
12122;SDS011;6125;59.628;17.852;2023-04-24T02:16:39;1.97;;;1.03;;
12122;SDS011;6125;59.628;17.852;2023-04-24T02:19:06;2.77;;;1.30;;
12122;SDS011;6125;59.628;17.852;2023-04-24T02:21:33;2.83;;;1.40;;
12122;SDS011;6125;59.628;17.852;2023-04-24T02:24:00;2.23;;;1.30;;
12122;SDS011;6125;59.628;17.852;2023-04-24T02:26:28;1.57;;;1.27;;
12122;SDS011;6125;59.628;17.852;2023-04-24T02:28:56;2.07;;;1.10;;
12122;SDS011;6125;59.628;17.852;2023-04-24T02:31:25;3.27;;;1.30;;
12122;SDS011;6125;59.628;17.852;2023-04-24T02:33:52;2.70;;;1.33;;
12122;SDS011;6125;59.628;17.852;2023-04-24T02:36:19;2.90;;;1.57;;
12122;SDS011;6125;59.628;17.852;2023-04-24T02:38:46;2.97;;;1.40;;
12122;SDS011;6125;59.628;17.852;2023-04-24T02:41:13;2.63;;;1.40;;
12122;SDS011;6125;59.628;17.852;2023-04-24T02:43:40;2.70;;;1.67;;
12122;SDS011;6125;59.628;17.852;2023-04-24T02:46:07;3.07;;;1.80;;
12122;SDS011;6125;59.628;17.852;2023-04-24T02:48:36;2.90;;;1.90;;
12122;SDS011;6125;59.628;17.852;2023-04-24T02:51:03;3.37;;;2.20;;
12122;SDS011;6125;59.628;17.852;2023-04-24T02:53:31;4.27;;;1.93;;
12122;SDS011;6125;59.628;17.852;2023-04-24T02:55:58;4.27;;;2.20;;
12122;SDS011;6125;59.628;17.852;2023-04-24T02:58:25;3.80;;;2.33;;
12122;SDS011;6125;59.628;17.852;2023-04-24T03:00:53;4.27;;;2.80;;
12122;SDS011;6125;59.628;17.852;2023-04-24T03:03:21;4.37;;;2.43;;
12122;SDS011;6125;59.628;17.852;2023-04-24T03:05:50;3.80;;;2.40;;
12122;SDS011;6125;59.628;17.852;2023-04-24T03:08:17;4.23;;;2.60;;
12122;SDS011;6125;59.628;17.852;2023-04-24T03:10:44;3.50;;;2.20;;
12122;SDS011;6125;59.628;17.852;2023-04-24T03:13:11;4.17;;;2.80;;
12122;SDS011;6125;59.628;17.852;2023-04-24T03:15:38;3.77;;;2.63;;
12122;SDS011;6125;59.628;17.852;2023-04-24T03:18:05;4.43;;;2.90;;
12122;SDS011;6125;59.628;17.852;2023-04-24T03:20:33;3.40;;;2.70;;
12122;SDS011;6125;59.628;17.852;2023-04-24T03:23:03;4.27;;;3.20;;
12122;SDS011;6125;59.628;17.852;2023-04-24T03:25:30;4.47;;;3.17;;
12122;SDS011;6125;59.628;17.852;2023-04-24T03:27:57;5.33;;;3.30;;
12122;SDS011;6125;59.628;17.852;2023-04-24T03:30:24;8.27;;;3.60;;
12122;SDS011;6125;59.628;17.852;2023-04-24T03:32:52;5.23;;;3.60;;
12122;SDS011;6125;59.628;17.852;2023-04-24T03:35:19;5.33;;;3.40;;
12122;SDS011;6125;59.628;17.852;2023-04-24T03:37:47;7.33;;;3.90;;
12122;SDS011;6125;59.628;17.852;2023-04-24T03:40:15;8.53;;;4.10;;
12122;SDS011;6125;59.628;17.852;2023-04-24T03:42:42;6.87;;;3.87;;
12122;SDS011;6125;59.628;17.852;2023-04-24T03:45:10;8.57;;;4.53;;
12122;SDS011;6125;59.628;17.852;2023-04-24T03:47:37;6.90;;;4.13;;
12122;SDS011;6125;59.628;17.852;2023-04-24T03:50:04;6.03;;;3.87;;
12122;SDS011;6125;59.628;17.852;2023-04-24T03:52:32;7.10;;;3.90;;
12122;SDS011;6125;59.628;17.852;2023-04-24T03:54:59;5.57;;;3.90;;
12122;SDS011;6125;59.628;17.852;2023-04-24T03:57:27;5.13;;;3.30;;
12122;SDS011;6125;59.628;17.852;2023-04-24T03:59:55;5.93;;;4.17;;
12122;SDS011;6125;59.628;17.852;2023-04-24T04:02:22;5.83;;;3.97;;
12122;SDS011;6125;59.628;17.852;2023-04-24T04:04:49;6.83;;;4.97;;
12122;SDS011;6125;59.628;17.852;2023-04-24T04:07:16;6.90;;;4.23;;
12122;SDS011;6125;59.628;17.852;2023-04-24T04:09:43;7.93;;;5.37;;
12122;SDS011;6125;59.628;17.852;2023-04-24T04:12:10;8.70;;;4.40;;
12122;SDS011;6125;59.628;17.852;2023-04-24T04:14:39;5.47;;;4.47;;
12122;SDS011;6125;59.628;17.852;2023-04-24T04:17:06;9.97;;;5.27;;
12122;SDS011;6125;59.628;17.852;2023-04-24T04:19:33;7.70;;;5.00;;
12122;SDS011;6125;59.628;17.852;2023-04-24T04:22:00;11.13;;;5.00;;
12122;SDS011;6125;59.628;17.852;2023-04-24T04:24:27;9.27;;;4.90;;
12122;SDS011;6125;59.628;17.852;2023-04-24T04:26:54;10.30;;;5.13;;
12122;SDS011;6125;59.628;17.852;2023-04-24T04:29:23;10.73;;;5.40;;
12122;SDS011;6125;59.628;17.852;2023-04-24T04:31:52;7.50;;;4.90;;
12122;SDS011;6125;59.628;17.852;2023-04-24T04:34:20;7.13;;;5.13;;
12122;SDS011;6125;59.628;17.852;2023-04-24T04:36:47;10.57;;;5.30;;
12122;SDS011;6125;59.628;17.852;2023-04-24T04:39:15;17.77;;;5.57;;
12122;SDS011;6125;59.628;17.852;2023-04-24T04:41:43;9.63;;;4.77;;
12122;SDS011;6125;59.628;17.852;2023-04-24T04:44:11;7.53;;;4.60;;
12122;SDS011;6125;59.628;17.852;2023-04-24T04:46:39;6.23;;;4.63;;
12122;SDS011;6125;59.628;17.852;2023-04-24T04:49:08;7.13;;;4.60;;
12122;SDS011;6125;59.628;17.852;2023-04-24T04:51:36;5.87;;;4.20;;
12122;SDS011;6125;59.628;17.852;2023-04-24T04:54:03;4.60;;;3.80;;
12122;SDS011;6125;59.628;17.852;2023-04-24T04:56:30;10.20;;;4.10;;
12122;SDS011;6125;59.628;17.852;2023-04-24T04:58:57;5.20;;;3.30;;
12122;SDS011;6125;59.628;17.852;2023-04-24T05:01:24;7.37;;;3.47;;
12122;SDS011;6125;59.628;17.852;2023-04-24T05:03:52;4.70;;;3.40;;
12122;SDS011;6125;59.628;17.852;2023-04-24T05:06:21;3.90;;;3.03;;
12122;SDS011;6125;59.628;17.852;2023-04-24T05:08:48;7.80;;;3.00;;
12122;SDS011;6125;59.628;17.852;2023-04-24T05:11:22;4.70;;;3.30;;
12122;SDS011;6125;59.628;17.852;2023-04-24T05:13:49;3.70;;;2.80;;
12122;SDS011;6125;59.628;17.852;2023-04-24T05:16:16;3.67;;;3.27;;
12122;SDS011;6125;59.628;17.852;2023-04-24T05:18:43;4.23;;;3.00;;
12122;SDS011;6125;59.628;17.852;2023-04-24T05:21:10;2.47;;;2.27;;
12122;SDS011;6125;59.628;17.852;2023-04-24T05:23:39;4.00;;;2.87;;
12122;SDS011;6125;59.628;17.852;2023-04-24T05:26:06;3.50;;;3.00;;
12122;SDS011;6125;59.628;17.852;2023-04-24T05:28:33;5.57;;;3.17;;
12122;SDS011;6125;59.628;17.852;2023-04-24T05:31:01;4.70;;;3.30;;
12122;SDS011;6125;59.628;17.852;2023-04-24T05:33:29;5.17;;;3.40;;
12122;SDS011;6125;59.628;17.852;2023-04-24T05:35:56;4.93;;;2.90;;
12122;SDS011;6125;59.628;17.852;2023-04-24T05:38:23;3.87;;;3.30;;
12122;SDS011;6125;59.628;17.852;2023-04-24T05:40:52;8.27;;;3.70;;
12122;SDS011;6125;59.628;17.852;2023-04-24T05:43:19;4.00;;;3.10;;
12122;SDS011;6125;59.628;17.852;2023-04-24T05:45:46;3.77;;;3.40;;
12122;SDS011;6125;59.628;17.852;2023-04-24T05:48:13;4.17;;;3.13;;
12122;SDS011;6125;59.628;17.852;2023-04-24T05:50:40;3.90;;;3.10;;
12122;SDS011;6125;59.628;17.852;2023-04-24T05:53:07;4.83;;;3.33;;
12122;SDS011;6125;59.628;17.852;2023-04-24T05:55:35;3.60;;;3.07;;
12122;SDS011;6125;59.628;17.852;2023-04-24T05:58:04;3.73;;;3.37;;
12122;SDS011;6125;59.628;17.852;2023-04-24T06:00:31;4.70;;;2.83;;
12122;SDS011;6125;59.628;17.852;2023-04-24T06:02:59;3.30;;;2.93;;
12122;SDS011;6125;59.628;17.852;2023-04-24T06:05:28;4.00;;;2.43;;
12122;SDS011;6125;59.628;17.852;2023-04-24T06:07:56;3.80;;;2.30;;
12122;SDS011;6125;59.628;17.852;2023-04-24T06:10:23;3.80;;;2.30;;
12122;SDS011;6125;59.628;17.852;2023-04-24T06:12:50;2.57;;;1.90;;
12122;SDS011;6125;59.628;17.852;2023-04-24T06:15:19;2.60;;;2.40;;
12122;SDS011;6125;59.628;17.852;2023-04-24T06:17:46;2.20;;;1.67;;
12122;SDS011;6125;59.628;17.852;2023-04-24T06:20:13;1.73;;;1.63;;
12122;SDS011;6125;59.628;17.852;2023-04-24T06:22:40;3.43;;;1.80;;
12122;SDS011;6125;59.628;17.852;2023-04-24T06:25:08;2.67;;;1.90;;
12122;SDS011;6125;59.628;17.852;2023-04-24T06:27:35;1.90;;;1.70;;
12122;SDS011;6125;59.628;17.852;2023-04-24T06:30:02;2.23;;;1.60;;
12122;SDS011;6125;59.628;17.852;2023-04-24T06:32:31;1.97;;;1.73;;
12122;SDS011;6125;59.628;17.852;2023-04-24T06:34:58;3.13;;;1.70;;
12122;SDS011;6125;59.628;17.852;2023-04-24T06:37:25;2.47;;;1.80;;
12122;SDS011;6125;59.628;17.852;2023-04-24T06:39:52;4.80;;;1.93;;
12122;SDS011;6125;59.628;17.852;2023-04-24T06:42:19;5.23;;;1.80;;
12122;SDS011;6125;59.628;17.852;2023-04-24T06:44:47;2.30;;;1.60;;
12122;SDS011;6125;59.628;17.852;2023-04-24T06:47:14;3.10;;;1.80;;
12122;SDS011;6125;59.628;17.852;2023-04-24T06:49:42;1.97;;;1.80;;
12122;SDS011;6125;59.628;17.852;2023-04-24T06:52:09;2.20;;;1.73;;
12122;SDS011;6125;59.628;17.852;2023-04-24T06:54:43;2.70;;;2.23;;
12122;SDS011;6125;59.628;17.852;2023-04-24T06:57:11;2.17;;;1.70;;
12122;SDS011;6125;59.628;17.852;2023-04-24T06:59:38;4.43;;;2.03;;
12122;SDS011;6125;59.628;17.852;2023-04-24T07:02:05;3.23;;;2.50;;
12122;SDS011;6125;59.628;17.852;2023-04-24T07:04:32;3.10;;;2.37;;
12122;SDS011;6125;59.628;17.852;2023-04-24T07:07:01;4.47;;;2.30;;
12122;SDS011;6125;59.628;17.852;2023-04-24T07:09:29;2.80;;;2.07;;
12122;SDS011;6125;59.628;17.852;2023-04-24T07:11:57;3.07;;;1.90;;
12122;SDS011;6125;59.628;17.852;2023-04-24T07:14:24;2.47;;;2.10;;
12122;SDS011;6125;59.628;17.852;2023-04-24T07:16:51;3.07;;;2.33;;
12122;SDS011;6125;59.628;17.852;2023-04-24T07:19:18;4.27;;;2.57;;
12122;SDS011;6125;59.628;17.852;2023-04-24T07:21:45;3.80;;;2.13;;
12122;SDS011;6125;59.628;17.852;2023-04-24T07:24:13;4.10;;;2.23;;
12122;SDS011;6125;59.628;17.852;2023-04-24T07:26:40;2.17;;;1.80;;
12122;SDS011;6125;59.628;17.852;2023-04-24T07:29:08;3.83;;;1.90;;
12122;SDS011;6125;59.628;17.852;2023-04-24T07:31:35;3.03;;;1.73;;
12122;SDS011;6125;59.628;17.852;2023-04-24T07:34:03;3.83;;;1.80;;
12122;SDS011;6125;59.628;17.852;2023-04-24T07:36:38;5.07;;;1.70;;
12122;SDS011;6125;59.628;17.852;2023-04-24T07:39:05;2.47;;;1.67;;
12122;SDS011;6125;59.628;17.852;2023-04-24T07:41:33;1.60;;;1.50;;
12122;SDS011;6125;59.628;17.852;2023-04-24T07:44:00;2.60;;;1.60;;
12122;SDS011;6125;59.628;17.852;2023-04-24T07:46:28;2.23;;;1.50;;
12122;SDS011;6125;59.628;17.852;2023-04-24T07:48:56;2.10;;;1.73;;
12122;SDS011;6125;59.628;17.852;2023-04-24T07:51:24;4.37;;;1.70;;
12122;SDS011;6125;59.628;17.852;2023-04-24T07:53:52;1.97;;;1.57;;
12122;SDS011;6125;59.628;17.852;2023-04-24T07:56:20;1.67;;;1.50;;
12122;SDS011;6125;59.628;17.852;2023-04-24T07:58:48;2.57;;;1.83;;
12122;SDS011;6125;59.628;17.852;2023-04-24T08:01:15;3.10;;;1.80;;
12122;SDS011;6125;59.628;17.852;2023-04-24T08:03:42;3.80;;;1.80;;
12122;SDS011;6125;59.628;17.852;2023-04-24T08:06:09;1.93;;;1.47;;
12122;SDS011;6125;59.628;17.852;2023-04-24T08:08:36;5.80;;;1.93;;
12122;SDS011;6125;59.628;17.852;2023-04-24T08:11:03;4.77;;;1.80;;
12122;SDS011;6125;59.628;17.852;2023-04-24T08:13:30;5.80;;;1.63;;
12122;SDS011;6125;59.628;17.852;2023-04-24T08:15:59;6.10;;;2.57;;
12122;SDS011;6125;59.628;17.852;2023-04-24T08:18:26;2.63;;;1.07;;
12122;SDS011;6125;59.628;17.852;2023-04-24T08:20:54;3.13;;;1.70;;
12122;SDS011;6125;59.628;17.852;2023-04-24T08:23:21;4.50;;;1.63;;
12122;SDS011;6125;59.628;17.852;2023-04-24T08:25:48;3.83;;;1.50;;
12122;SDS011;6125;59.628;17.852;2023-04-24T08:28:15;2.30;;;1.50;;
12122;SDS011;6125;59.628;17.852;2023-04-24T08:30:45;2.30;;;1.33;;
12122;SDS011;6125;59.628;17.852;2023-04-24T08:33:14;2.17;;;1.67;;
12122;SDS011;6125;59.628;17.852;2023-04-24T08:35:41;1.80;;;1.70;;
12122;SDS011;6125;59.628;17.852;2023-04-24T08:38:08;2.60;;;1.63;;
12122;SDS011;6125;59.628;17.852;2023-04-24T08:40:35;3.20;;;1.77;;
12122;SDS011;6125;59.628;17.852;2023-04-24T08:43:04;4.83;;;1.80;;
12122;SDS011;6125;59.628;17.852;2023-04-24T08:45:32;12.03;;;2.03;;
12122;SDS011;6125;59.628;17.852;2023-04-24T08:47:59;1.60;;;1.40;;
12122;SDS011;6125;59.628;17.852;2023-04-24T08:50:29;2.97;;;1.70;;
12122;SDS011;6125;59.628;17.852;2023-04-24T08:52:57;4.30;;;2.10;;
12122;SDS011;6125;59.628;17.852;2023-04-24T08:55:25;6.50;;;2.13;;
12122;SDS011;6125;59.628;17.852;2023-04-24T08:57:52;4.00;;;1.90;;
12122;SDS011;6125;59.628;17.852;2023-04-24T09:00:20;2.57;;;1.60;;
12122;SDS011;6125;59.628;17.852;2023-04-24T09:02:48;3.10;;;1.63;;
12122;SDS011;6125;59.628;17.852;2023-04-24T09:05:17;5.87;;;2.03;;
12122;SDS011;6125;59.628;17.852;2023-04-24T09:07:48;4.40;;;1.80;;
12122;SDS011;6125;59.628;17.852;2023-04-24T09:10:19;3.93;;;1.87;;
12122;SDS011;6125;59.628;17.852;2023-04-24T09:12:47;1.93;;;1.70;;
12122;SDS011;6125;59.628;17.852;2023-04-24T09:15:15;4.53;;;2.20;;
12122;SDS011;6125;59.628;17.852;2023-04-24T09:17:43;5.37;;;2.20;;
12122;SDS011;6125;59.628;17.852;2023-04-24T09:20:10;4.37;;;2.00;;
12122;SDS011;6125;59.628;17.852;2023-04-24T09:22:37;4.60;;;2.53;;
12122;SDS011;6125;59.628;17.852;2023-04-24T09:25:06;4.07;;;2.60;;
12122;SDS011;6125;59.628;17.852;2023-04-24T09:27:36;3.27;;;1.63;;
12122;SDS011;6125;59.628;17.852;2023-04-24T09:30:09;4.30;;;1.80;;
12122;SDS011;6125;59.628;17.852;2023-04-24T09:32:37;4.73;;;2.20;;
12122;SDS011;6125;59.628;17.852;2023-04-24T09:35:05;7.60;;;2.20;;
12122;SDS011;6125;59.628;17.852;2023-04-24T09:37:36;4.93;;;2.20;;
12122;SDS011;6125;59.628;17.852;2023-04-24T09:40:09;2.83;;;1.90;;
12122;SDS011;6125;59.628;17.852;2023-04-24T09:42:43;6.37;;;2.27;;
12122;SDS011;6125;59.628;17.852;2023-04-24T09:45:11;9.17;;;2.70;;
12122;SDS011;6125;59.628;17.852;2023-04-24T09:47:38;5.50;;;2.53;;
12122;SDS011;6125;59.628;17.852;2023-04-24T09:50:09;5.00;;;2.30;;
12122;SDS011;6125;59.628;17.852;2023-04-24T09:52:39;3.20;;;2.07;;
12122;SDS011;6125;59.628;17.852;2023-04-24T09:55:11;2.23;;;1.90;;
12122;SDS011;6125;59.628;17.852;2023-04-24T09:57:47;6.50;;;1.93;;
12122;SDS011;6125;59.628;17.852;2023-04-24T10:00:18;3.10;;;2.03;;
12122;SDS011;6125;59.628;17.852;2023-04-24T10:02:54;2.03;;;1.80;;
12122;SDS011;6125;59.628;17.852;2023-04-24T10:05:26;6.43;;;1.90;;
12122;SDS011;6125;59.628;17.852;2023-04-24T10:08:00;2.63;;;1.87;;
12122;SDS011;6125;59.628;17.852;2023-04-24T10:10:30;2.70;;;1.77;;
12122;SDS011;6125;59.628;17.852;2023-04-24T10:12:59;3.83;;;1.97;;
12122;SDS011;6125;59.628;17.852;2023-04-24T10:15:27;4.13;;;2.00;;
12122;SDS011;6125;59.628;17.852;2023-04-24T10:17:55;4.10;;;1.87;;
12122;SDS011;6125;59.628;17.852;2023-04-24T10:20:25;4.63;;;1.80;;
12122;SDS011;6125;59.628;17.852;2023-04-24T10:22:54;3.97;;;2.30;;
12122;SDS011;6125;59.628;17.852;2023-04-24T10:25:22;2.13;;;1.93;;
12122;SDS011;6125;59.628;17.852;2023-04-24T10:27:52;2.20;;;1.70;;
12122;SDS011;6125;59.628;17.852;2023-04-24T10:30:22;7.80;;;1.97;;
12122;SDS011;6125;59.628;17.852;2023-04-24T10:32:50;2.80;;;1.90;;
12122;SDS011;6125;59.628;17.852;2023-04-24T10:35:17;3.93;;;2.13;;
12122;SDS011;6125;59.628;17.852;2023-04-24T10:37:48;3.73;;;1.63;;
12122;SDS011;6125;59.628;17.852;2023-04-24T10:40:17;3.57;;;1.93;;
12122;SDS011;6125;59.628;17.852;2023-04-24T10:42:52;3.43;;;2.00;;
12122;SDS011;6125;59.628;17.852;2023-04-24T10:45:19;2.27;;;1.90;;
12122;SDS011;6125;59.628;17.852;2023-04-24T10:47:51;4.77;;;2.03;;
12122;SDS011;6125;59.628;17.852;2023-04-24T10:50:19;8.03;;;3.07;;
12122;SDS011;6125;59.628;17.852;2023-04-24T10:52:46;7.60;;;2.53;;
12122;SDS011;6125;59.628;17.852;2023-04-24T10:55:16;5.63;;;2.07;;
12122;SDS011;6125;59.628;17.852;2023-04-24T10:58:06;2.20;;;2.00;;
12122;SDS011;6125;59.628;17.852;2023-04-24T11:00:34;2.07;;;1.80;;
12122;SDS011;6125;59.628;17.852;2023-04-24T11:03:04;6.60;;;1.97;;
12122;SDS011;6125;59.628;17.852;2023-04-24T11:05:51;2.93;;;2.07;;
12122;SDS011;6125;59.628;17.852;2023-04-24T11:08:26;4.00;;;2.37;;
12122;SDS011;6125;59.628;17.852;2023-04-24T11:10:59;3.13;;;2.17;;
12122;SDS011;6125;59.628;17.852;2023-04-24T11:16:31;2.87;;;1.90;;
12122;SDS011;6125;59.628;17.852;2023-04-24T11:19:03;2.40;;;2.00;;
12122;SDS011;6125;59.628;17.852;2023-04-24T11:21:32;2.53;;;2.10;;
12122;SDS011;6125;59.628;17.852;2023-04-24T11:24:25;3.03;;;2.00;;
12122;SDS011;6125;59.628;17.852;2023-04-24T11:26:57;5.97;;;2.03;;
12122;SDS011;6125;59.628;17.852;2023-04-24T11:29:40;3.40;;;1.90;;
12122;SDS011;6125;59.628;17.852;2023-04-24T11:32:16;3.80;;;1.63;;
12122;SDS011;6125;59.628;17.852;2023-04-24T11:34:45;2.80;;;2.07;;
12122;SDS011;6125;59.628;17.852;2023-04-24T11:37:13;3.60;;;1.70;;
12122;SDS011;6125;59.628;17.852;2023-04-24T11:39:41;3.67;;;1.90;;
12122;SDS011;6125;59.628;17.852;2023-04-24T11:42:08;3.27;;;2.13;;
12122;SDS011;6125;59.628;17.852;2023-04-24T11:44:35;4.07;;;1.93;;
12122;SDS011;6125;59.628;17.852;2023-04-24T11:47:03;3.90;;;1.90;;
12122;SDS011;6125;59.628;17.852;2023-04-24T11:49:32;5.50;;;2.43;;
12122;SDS011;6125;59.628;17.852;2023-04-24T11:51:59;9.97;;;2.77;;
12122;SDS011;6125;59.628;17.852;2023-04-24T11:54:26;1.93;;;1.77;;
12122;SDS011;6125;59.628;17.852;2023-04-24T11:56:55;3.93;;;1.83;;
12122;SDS011;6125;59.628;17.852;2023-04-24T11:59:23;2.73;;;1.90;;
12122;SDS011;6125;59.628;17.852;2023-04-24T12:01:50;3.13;;;2.17;;
12122;SDS011;6125;59.628;17.852;2023-04-24T12:04:17;5.27;;;1.60;;
12122;SDS011;6125;59.628;17.852;2023-04-24T12:07:02;2.40;;;1.60;;
12122;SDS011;6125;59.628;17.852;2023-04-24T12:09:39;8.00;;;2.27;;
12122;SDS011;6125;59.628;17.852;2023-04-24T12:12:08;2.17;;;1.90;;
12122;SDS011;6125;59.628;17.852;2023-04-24T12:14:41;3.00;;;2.20;;
12122;SDS011;6125;59.628;17.852;2023-04-24T12:17:14;2.40;;;1.87;;
12122;SDS011;6125;59.628;17.852;2023-04-24T12:19:44;5.77;;;2.10;;
12122;SDS011;6125;59.628;17.852;2023-04-24T12:22:14;3.50;;;1.90;;
12122;SDS011;6125;59.628;17.852;2023-04-24T12:24:57;3.07;;;2.00;;
12122;SDS011;6125;59.628;17.852;2023-04-24T12:27:25;6.87;;;2.30;;
12122;SDS011;6125;59.628;17.852;2023-04-24T12:29:53;8.73;;;2.20;;
12122;SDS011;6125;59.628;17.852;2023-04-24T12:32:22;4.40;;;2.23;;
12122;SDS011;6125;59.628;17.852;2023-04-24T12:34:50;4.07;;;2.00;;
12122;SDS011;6125;59.628;17.852;2023-04-24T12:37:19;3.50;;;2.30;;
12122;SDS011;6125;59.628;17.852;2023-04-24T12:39:59;5.20;;;2.30;;
12122;SDS011;6125;59.628;17.852;2023-04-24T12:42:27;5.27;;;2.60;;
12122;SDS011;6125;59.628;17.852;2023-04-24T12:44:56;4.03;;;2.07;;
12122;SDS011;6125;59.628;17.852;2023-04-24T12:47:25;2.70;;;1.87;;
12122;SDS011;6125;59.628;17.852;2023-04-24T12:49:52;3.70;;;1.87;;
12122;SDS011;6125;59.628;17.852;2023-04-24T12:52:21;3.47;;;1.90;;
12122;SDS011;6125;59.628;17.852;2023-04-24T12:54:51;14.77;;;2.80;;
12122;SDS011;6125;59.628;17.852;2023-04-24T12:57:19;2.60;;;1.80;;
12122;SDS011;6125;59.628;17.852;2023-04-24T12:59:46;9.37;;;2.00;;
12122;SDS011;6125;59.628;17.852;2023-04-24T13:02:13;7.67;;;2.40;;
12122;SDS011;6125;59.628;17.852;2023-04-24T13:04:43;4.80;;;2.20;;
12122;SDS011;6125;59.628;17.852;2023-04-24T13:07:11;7.23;;;2.20;;
12122;SDS011;6125;59.628;17.852;2023-04-24T13:09:40;4.93;;;2.20;;
12122;SDS011;6125;59.628;17.852;2023-04-24T13:12:08;3.53;;;1.93;;
12122;SDS011;6125;59.628;17.852;2023-04-24T13:14:36;4.77;;;2.43;;
12122;SDS011;6125;59.628;17.852;2023-04-24T13:17:03;5.73;;;2.00;;
12122;SDS011;6125;59.628;17.852;2023-04-24T13:19:35;7.93;;;2.47;;
12122;SDS011;6125;59.628;17.852;2023-04-24T13:22:03;6.03;;;2.70;;
12122;SDS011;6125;59.628;17.852;2023-04-24T13:24:30;5.60;;;2.20;;
12122;SDS011;6125;59.628;17.852;2023-04-24T13:26:59;8.67;;;2.87;;
12122;SDS011;6125;59.628;17.852;2023-04-24T13:29:27;5.10;;;3.10;;
12122;SDS011;6125;59.628;17.852;2023-04-24T13:31:55;7.30;;;2.83;;
12122;SDS011;6125;59.628;17.852;2023-04-24T13:34:22;6.77;;;2.50;;
12122;SDS011;6125;59.628;17.852;2023-04-24T13:36:50;3.77;;;2.67;;
12122;SDS011;6125;59.628;17.852;2023-04-24T13:39:17;7.03;;;3.27;;
12122;SDS011;6125;59.628;17.852;2023-04-24T13:41:44;5.23;;;3.03;;
12122;SDS011;6125;59.628;17.852;2023-04-24T13:44:14;5.20;;;3.00;;
12122;SDS011;6125;59.628;17.852;2023-04-24T13:46:42;3.87;;;2.50;;
12122;SDS011;6125;59.628;17.852;2023-04-24T13:49:10;3.97;;;2.80;;
12122;SDS011;6125;59.628;17.852;2023-04-24T13:51:38;7.83;;;2.90;;
12122;SDS011;6125;59.628;17.852;2023-04-24T13:54:05;7.13;;;2.90;;
12122;SDS011;6125;59.628;17.852;2023-04-24T13:56:33;3.07;;;2.50;;
12122;SDS011;6125;59.628;17.852;2023-04-24T13:59:00;8.17;;;2.43;;
12122;SDS011;6125;59.628;17.852;2023-04-24T14:01:28;6.40;;;2.90;;
12122;SDS011;6125;59.628;17.852;2023-04-24T14:03:55;3.50;;;2.50;;
12122;SDS011;6125;59.628;17.852;2023-04-24T14:06:23;12.53;;;3.30;;
12122;SDS011;6125;59.628;17.852;2023-04-24T14:08:51;7.47;;;3.10;;
12122;SDS011;6125;59.628;17.852;2023-04-24T14:11:18;7.13;;;2.80;;
12122;SDS011;6125;59.628;17.852;2023-04-24T14:13:45;6.97;;;3.00;;
12122;SDS011;6125;59.628;17.852;2023-04-24T14:16:13;3.53;;;2.63;;
12122;SDS011;6125;59.628;17.852;2023-04-24T14:18:41;5.23;;;2.63;;
12122;SDS011;6125;59.628;17.852;2023-04-24T14:21:09;7.40;;;3.10;;
12122;SDS011;6125;59.628;17.852;2023-04-24T14:23:36;5.97;;;2.43;;
12122;SDS011;6125;59.628;17.852;2023-04-24T14:26:03;9.70;;;2.77;;
12122;SDS011;6125;59.628;17.852;2023-04-24T14:28:30;6.30;;;2.77;;
12122;SDS011;6125;59.628;17.852;2023-04-24T14:30:57;4.60;;;2.80;;
12122;SDS011;6125;59.628;17.852;2023-04-24T14:33:24;3.93;;;2.67;;
12122;SDS011;6125;59.628;17.852;2023-04-24T14:35:53;4.83;;;2.67;;
12122;SDS011;6125;59.628;17.852;2023-04-24T14:38:21;6.60;;;3.13;;
12122;SDS011;6125;59.628;17.852;2023-04-24T14:40:48;6.77;;;3.33;;
12122;SDS011;6125;59.628;17.852;2023-04-24T14:43:15;10.13;;;3.53;;
12122;SDS011;6125;59.628;17.852;2023-04-24T14:45:43;3.70;;;2.73;;
12122;SDS011;6125;59.628;17.852;2023-04-24T14:48:10;5.10;;;3.20;;
12122;SDS011;6125;59.628;17.852;2023-04-24T14:50:37;5.07;;;2.93;;
12122;SDS011;6125;59.628;17.852;2023-04-24T14:53:06;8.37;;;2.90;;
12122;SDS011;6125;59.628;17.852;2023-04-24T14:55:33;2.87;;;2.60;;
12122;SDS011;6125;59.628;17.852;2023-04-24T14:58:01;5.60;;;3.33;;